Vicar, Spain
Current Conditions -  °F | °C
As of 7:00 PM on Saturday 25 Oct 2014 (Local Time) from LEAM Reporting Station
Clear Clear  
Wind Chill: 81°   Ceiling: Unl
Heat Index: 81°   Visibility: 6mi
Dew Point: 37°   Wind: 15mph
Humidity: 21%   Direction: 70°ENE
Pressure: 30.06"   Gusts: NA
Location:  36.83°N, 2.64°W
Report Text: LEAM 251700Z 07013KT CAVOK 27/03 Q1018
Loading
Personal Weather Stations






























Interactive Weather Map
Tropical Storm Tracking
New forecast layout! Learn more

10-Day Weather Forecast

Advertisements
Track Severe Weather on mobile